Time;durP1;ratioP1;P1;durP2;ratioP2;P2;SDS_P1;SDS_P2;PMS_P1;PMS_P2;Temp;Humidity;BMP_temperature;BMP_pressure;BME280_temperature;BME280_humidity;BME280_pressure;Samples;Min_cycle;Max_cycle;Signal;HPM_P1;HPM_P2
2024/01/28 00:00:59;;;;;;;;;;;3.50;99.90;;;;;;5032106;28;20003;-59
2024/01/28 00:03:26;;;;;;;;;;;3.60;99.90;;;;;;5034712;28;19973;-60
2024/01/28 00:05:54;;;;;;;;;;;3.60;99.90;;;;;;5031765;28;19965;-60
2024/01/28 00:08:25;;;;;;;;;;;3.70;99.90;;;;;;5033421;28;19931;-59
2024/01/28 00:10:54;;;;;;;;;;;3.70;99.90;;;;;;5031193;28;20454;-59
2024/01/28 00:13:24;;;;;;;;;;;3.70;99.90;;;;;;5029971;28;19961;-61
2024/01/28 00:15:54;;;;;;;;;;;3.70;99.90;;;;;;5032175;28;19972;-61
2024/01/28 00:18:21;;;;;;;;;;;3.70;99.90;;;;;;5032106;28;20409;-60
2024/01/28 00:20:48;;;;;;;;;;;3.70;99.90;;;;;;5029926;28;19929;-59
2024/01/28 00:23:15;;;;;;;;;;;3.80;99.90;;;;;;5035178;28;19929;-64
2024/01/28 00:25:42;;;;;;;;;;;3.80;99.90;;;;;;5037497;28;20038;-61
2024/01/28 00:28:08;;;;;;;;;;;3.90;99.90;;;;;;5036887;28;19941;-60
2024/01/28 00:30:35;;;;;;;;;;;3.90;99.90;;;;;;5045980;28;19925;-64
2024/01/28 00:33:03;;;;;;;;;;;4.00;99.90;;;;;;5034078;28;19925;-59
2024/01/28 00:35:30;;;;;;;;;;;4.00;99.90;;;;;;5033584;28;19932;-60
2024/01/28 00:37:57;;;;;;;;;;;4.00;99.90;;;;;;5035620;28;21411;-65
2024/01/28 00:40:24;;;;;;;;;;;4.10;99.90;;;;;;5031377;28;20395;-60
2024/01/28 00:42:51;;;;;;;;;;;4.10;99.90;;;;;;5033059;28;19929;-59
2024/01/28 00:45:18;;;;;;;;;;;4.10;99.90;;;;;;5048658;28;20355;-64
2024/01/28 00:47:45;;;;;;;;;;;4.10;99.90;;;;;;5033495;28;20020;-62
2024/01/28 00:50:13;;;;;;;;;;;4.10;99.90;;;;;;5030093;28;19954;-62
2024/01/28 00:52:40;;;;;;;;;;;4.20;99.90;;;;;;5040731;28;19932;-64
2024/01/28 00:55:08;;;;;;;;;;;4.20;99.90;;;;;;5033211;28;19932;-58
2024/01/28 00:57:35;;;;;;;;;;;4.20;99.90;;;;;;5037075;28;19990;-59
2024/01/28 01:00:03;;;;;;;;;;;4.30;99.90;;;;;;5032238;28;20745;-64
2024/01/28 01:02:30;;;;;;;;;;;4.30;99.90;;;;;;5034050;28;20031;-61
2024/01/28 01:04:57;;;;;;;;;;;4.30;99.90;;;;;;5037284;28;19984;-59
2024/01/28 01:07:25;;;;;;;;;;;4.30;99.90;;;;;;5031545;28;19975;-64
2024/01/28 01:09:52;;;;;;;;;;;4.30;99.90;;;;;;5033850;28;19925;-59
2024/01/28 01:12:18;;;;;;;;;;;4.30;99.90;;;;;;5034492;28;19935;-59
2024/01/28 01:14:45;;;;;;;;;;;4.30;99.90;;;;;;5034114;28;19933;-67
2024/01/28 01:17:12;;;;;;;;;;;4.30;99.90;;;;;;5037068;28;19968;-63
2024/01/28 01:19:39;;;;;;;;;;;4.30;99.90;;;;;;5034068;28;19929;-62
2024/01/28 01:22:06;;;;;;;;;;;4.30;99.90;;;;;;5031437;28;20350;-60
2024/01/28 01:24:33;;;;;;;;;;;4.30;99.90;;;;;;5033390;28;19928;-61
2024/01/28 01:27:00;;;;;;;;;;;4.30;99.90;;;;;;5030725;28;20024;-60
2024/01/28 01:29:27;;;;;;;;;;;4.30;99.90;;;;;;5030725;28;19925;-62
2024/01/28 01:31:54;;;;;;;;;;;4.40;99.90;;;;;;5033431;28;20601;-59
2024/01/28 01:34:21;;;;;;;;;;;4.40;99.90;;;;;;5031634;28;19975;-59
2024/01/28 01:36:48;;;;;;;;;;;4.50;99.90;;;;;;5030984;28;20178;-59
2024/01/28 01:39:19;;;;;;;;;;;4.50;99.90;;;;;;5031979;28;19925;-60
2024/01/28 01:41:46;;;;;;;;;;;4.60;99.90;;;;;;5034271;28;20319;-60
2024/01/28 01:44:13;;;;;;;;;;;4.60;99.90;;;;;;5033743;28;20306;-67
2024/01/28 01:46:41;;;;;;;;;;;4.60;99.90;;;;;;5033619;28;19936;-63
2024/01/28 01:49:08;;;;;;;;;;;4.70;99.90;;;;;;5035562;28;20284;-67
2024/01/28 01:51:35;;;;;;;;;;;4.80;99.90;;;;;;5034944;28;19928;-65
2024/01/28 01:54:02;;;;;;;;;;;4.80;99.90;;;;;;5036742;28;20427;-62
2024/01/28 01:56:31;;;;;;;;;;;4.90;99.90;;;;;;5034128;28;20318;-61
2024/01/28 01:58:58;;;;;;;;;;;4.90;99.90;;;;;;5029326;28;20015;-63
2024/01/28 02:01:25;;;;;;;;;;;4.90;99.90;;;;;;5026337;28;19932;-59
2024/01/28 02:03:54;;;;;;;;;;;4.90;99.90;;;;;;5034335;28;20315;-59
2024/01/28 02:06:21;;;;;;;;;;;4.90;99.90;;;;;;5029053;28;19983;-60
2024/01/28 02:08:48;;;;;;;;;;;4.80;99.90;;;;;;5032767;28;19931;-60
2024/01/28 02:11:15;;;;;;;;;;;4.80;99.90;;;;;;5032206;28;20292;-62
2024/01/28 02:13:42;;;;;;;;;;;4.80;99.90;;;;;;5034423;28;20342;-66
2024/01/28 02:16:09;;;;;;;;;;;4.80;99.90;;;;;;5032921;28;19965;-60
2024/01/28 02:18:35;;;;;;;;;;;4.90;99.90;;;;;;5031344;28;19929;-59
2024/01/28 02:21:03;;;;;;;;;;;4.90;99.90;;;;;;5030356;28;19932;-60
2024/01/28 02:23:29;;;;;;;;;;;4.90;99.90;;;;;;5034356;28;20038;-62
2024/01/28 02:25:56;;;;;;;;;;;4.90;99.90;;;;;;5034007;28;19933;-59
2024/01/28 02:28:23;;;;;;;;;;;4.90;99.90;;;;;;5036511;28;19928;-60
2024/01/28 02:30:50;;;;;;;;;;;5.00;99.90;;;;;;5028493;28;19936;-60
2024/01/28 02:33:17;;;;;;;;;;;5.00;99.90;;;;;;5038419;28;19964;-60
2024/01/28 02:35:44;;;;;;;;;;;4.90;99.90;;;;;;5065017;28;19925;-66
2024/01/28 02:38:11;;;;;;;;;;;4.90;99.90;;;;;;5035530;28;20387;-62
2024/01/28 02:40:38;;;;;;;;;;;4.90;99.90;;;;;;5033381;28;19931;-59
2024/01/28 02:43:06;;;;;;;;;;;4.90;99.90;;;;;;5029112;28;19935;-60
2024/01/28 02:45:32;;;;;;;;;;;4.90;99.90;;;;;;5039010;28;19929;-60
2024/01/28 02:47:59;;;;;;;;;;;4.90;99.90;;;;;;5040287;28;19932;-64
2024/01/28 02:50:26;;;;;;;;;;;4.90;99.90;;;;;;5030386;28;19932;-61
2024/01/28 02:52:53;;;;;;;;;;;4.90;99.90;;;;;;5029931;28;19928;-59
2024/01/28 02:55:20;;;;;;;;;;;4.90;99.90;;;;;;5027209;28;19933;-59
2024/01/28 02:57:46;;;;;;;;;;;4.90;99.90;;;;;;5027344;28;19932;-63
2024/01/28 03:00:14;;;;;;;;;;;4.90;99.90;;;;;;5031060;28;20326;-65
2024/01/28 03:02:41;;;;;;;;;;;4.90;99.90;;;;;;5028727;28;19926;-61
2024/01/28 03:05:11;;;;;;;;;;;4.90;99.90;;;;;;5030097;28;19965;-62
2024/01/28 03:07:38;;;;;;;;;;;5.00;99.90;;;;;;5031007;28;19925;-61
2024/01/28 03:10:05;;;;;;;;;;;5.00;99.90;;;;;;5028395;28;19951;-59
2024/01/28 03:12:32;;;;;;;;;;;5.00;99.90;;;;;;5035797;28;19929;-62
2024/01/28 03:14:59;;;;;;;;;;;5.00;99.90;;;;;;5030167;28;20521;-61
2024/01/28 03:17:26;;;;;;;;;;;5.00;99.90;;;;;;5028918;28;19941;-58
2024/01/28 03:19:53;;;;;;;;;;;5.00;99.90;;;;;;5035557;28;20364;-61
2024/01/28 03:22:21;;;;;;;;;;;5.00;99.90;;;;;;5033082;28;19952;-61
2024/01/28 03:24:48;;;;;;;;;;;5.00;99.90;;;;;;5033182;28;20299;-61
2024/01/28 03:27:15;;;;;;;;;;;5.00;99.90;;;;;;5030925;28;19935;-63
2024/01/28 03:29:42;;;;;;;;;;;4.90;99.90;;;;;;5024759;28;19929;-64
2024/01/28 03:32:09;;;;;;;;;;;4.90;99.90;;;;;;5024761;28;19929;-60
2024/01/28 03:34:36;;;;;;;;;;;4.90;99.90;;;;;;5028669;28;20627;-67
2024/01/28 03:37:03;;;;;;;;;;;4.90;99.90;;;;;;5033065;28;20681;-59
2024/01/28 03:39:30;;;;;;;;;;;4.90;99.90;;;;;;5027605;28;19929;-61
2024/01/28 03:41:57;;;;;;;;;;;4.90;99.90;;;;;;5057951;28;20472;-61
2024/01/28 03:44:24;;;;;;;;;;;4.90;99.90;;;;;;5032138;28;20028;-62
2024/01/28 03:46:54;;;;;;;;;;;4.90;99.90;;;;;;5032457;28;19932;-61
2024/01/28 03:49:21;;;;;;;;;;;4.90;99.90;;;;;;5025349;28;20465;-62
2024/01/28 03:51:48;;;;;;;;;;;4.90;99.90;;;;;;5033488;28;20047;-62
2024/01/28 03:54:15;;;;;;;;;;;4.90;99.90;;;;;;5032312;28;19944;-61
2024/01/28 03:56:42;;;;;;;;;;;4.90;99.90;;;;;;5035134;28;20607;-64
2024/01/28 03:59:09;;;;;;;;;;;4.90;99.90;;;;;;5035058;28;20302;-60
2024/01/28 04:01:36;;;;;;;;;;;4.90;99.90;;;;;;5035252;28;19982;-60
2024/01/28 04:04:03;;;;;;;;;;;4.90;99.90;;;;;;5031116;28;19936;-62
2024/01/28 04:06:30;;;;;;;;;;;4.90;99.90;;;;;;5038011;28;19940;-61
2024/01/28 04:08:57;;;;;;;;;;;4.80;99.90;;;;;;5033900;28;19963;-59
2024/01/28 04:11:25;;;;;;;;;;;4.80;99.90;;;;;;5033236;28;19929;-63
2024/01/28 04:13:55;;;;;;;;;;;4.80;99.90;;;;;;5036895;28;20052;-60
2024/01/28 04:16:23;;;;;;;;;;;4.80;99.90;;;;;;5031765;28;19931;-61
2024/01/28 04:18:50;;;;;;;;;;;4.80;99.90;;;;;;5036212;28;19964;-59
2024/01/28 04:21:17;;;;;;;;;;;4.80;99.90;;;;;;5038426;28;19925;-60
2024/01/28 04:23:46;;;;;;;;;;;4.80;99.90;;;;;;5031834;28;20401;-60
2024/01/28 04:26:13;;;;;;;;;;;4.70;99.90;;;;;;5064119;28;20330;-61
2024/01/28 04:28:41;;;;;;;;;;;4.70;99.90;;;;;;5039412;28;20662;-59
2024/01/28 04:31:08;;;;;;;;;;;4.70;99.90;;;;;;5035867;28;19935;-61
2024/01/28 04:33:35;;;;;;;;;;;4.60;99.90;;;;;;5032058;28;19998;-60
2024/01/28 04:36:02;;;;;;;;;;;4.60;99.90;;;;;;5035827;28;19929;-63
2024/01/28 04:38:29;;;;;;;;;;;4.60;99.90;;;;;;5040165;28;19929;-59
2024/01/28 04:40:55;;;;;;;;;;;4.60;99.90;;;;;;5037841;28;19951;-59
2024/01/28 04:43:22;;;;;;;;;;;4.60;99.90;;;;;;5033995;28;19929;-61
2024/01/28 04:45:49;;;;;;;;;;;4.70;99.90;;;;;;5030138;28;19925;-59
2024/01/28 04:48:18;;;;;;;;;;;4.70;99.90;;;;;;5037865;28;20538;-60
2024/01/28 04:50:45;;;;;;;;;;;4.70;99.90;;;;;;5029623;28;19936;-62
2024/01/28 04:53:12;;;;;;;;;;;4.60;99.90;;;;;;5045872;28;19925;-63
2024/01/28 04:55:39;;;;;;;;;;;4.60;99.90;;;;;;5034922;28;19928;-60
2024/01/28 04:58:07;;;;;;;;;;;4.60;99.90;;;;;;5028962;28;19925;-61
2024/01/28 05:00:34;;;;;;;;;;;4.60;99.90;;;;;;5033444;28;19925;-59
2024/01/28 05:03:01;;;;;;;;;;;4.60;99.90;;;;;;5035475;28;19929;-60
2024/01/28 05:05:28;;;;;;;;;;;4.60;99.90;;;;;;5029536;28;19925;-58
2024/01/28 05:07:55;;;;;;;;;;;4.60;99.90;;;;;;5029747;28;19925;-62
2024/01/28 05:10:21;;;;;;;;;;;4.50;99.90;;;;;;5032547;28;20259;-61
2024/01/28 05:12:48;;;;;;;;;;;4.60;99.90;;;;;;5065741;28;19953;-59
2024/01/28 05:15:16;;;;;;;;;;;4.50;99.90;;;;;;5028208;28;19925;-62
2024/01/28 05:17:44;;;;;;;;;;;4.50;99.90;;;;;;5033942;28;19929;-59
2024/01/28 05:20:11;;;;;;;;;;;4.50;99.90;;;;;;5033470;28;20040;-65
2024/01/28 05:22:39;;;;;;;;;;;4.50;99.90;;;;;;5040803;28;19935;-59
2024/01/28 05:25:06;;;;;;;;;;;4.50;99.90;;;;;;5036625;28;19982;-64
2024/01/28 05:27:34;;;;;;;;;;;4.50;99.90;;;;;;5031844;28;19935;-60
2024/01/28 05:30:01;;;;;;;;;;;4.50;99.90;;;;;;5030942;28;19933;-60
2024/01/28 05:32:28;;;;;;;;;;;4.50;99.90;;;;;;5064449;28;20331;-60
2024/01/28 05:35:02;;;;;;;;;;;4.50;99.90;;;;;;5031334;28;19926;-59
2024/01/28 05:37:29;;;;;;;;;;;4.50;99.90;;;;;;5035253;28;19956;-59
2024/01/28 05:39:56;;;;;;;;;;;4.50;99.90;;;;;;5029650;28;19933;-61
2024/01/28 05:42:23;;;;;;;;;;;4.50;99.90;;;;;;5030597;28;20416;-60
2024/01/28 05:44:50;;;;;;;;;;;4.50;99.90;;;;;;5029307;28;19932;-61
2024/01/28 05:47:17;;;;;;;;;;;4.50;99.90;;;;;;5029142;28;19929;-59
2024/01/28 05:49:43;;;;;;;;;;;4.60;99.90;;;;;;5034624;28;19964;-61
2024/01/28 05:52:10;;;;;;;;;;;4.60;99.90;;;;;;5034308;28;19976;-62
2024/01/28 05:54:41;;;;;;;;;;;4.60;99.90;;;;;;5030880;28;20502;-59
2024/01/28 05:57:09;;;;;;;;;;;4.60;99.90;;;;;;5036146;28;19943;-59
2024/01/28 05:59:37;;;;;;;;;;;4.60;99.90;;;;;;5035671;28;20034;-59
2024/01/28 06:02:04;;;;;;;;;;;4.60;99.90;;;;;;5034581;28;19929;-61
2024/01/28 06:04:30;;;;;;;;;;;4.60;99.90;;;;;;5030276;28;19925;-61
2024/01/28 06:06:58;;;;;;;;;;;4.60;99.90;;;;;;5036911;28;19967;-68
2024/01/28 06:09:25;;;;;;;;;;;4.60;99.90;;;;;;5027632;28;20445;-62
2024/01/28 06:11:52;;;;;;;;;;;4.70;99.90;;;;;;5026636;28;19932;-64
2024/01/28 06:14:19;;;;;;;;;;;4.60;99.90;;;;;;5035661;28;19952;-63
2024/01/28 06:16:46;;;;;;;;;;;4.60;99.90;;;;;;5031835;28;19924;-59
2024/01/28 06:19:13;;;;;;;;;;;4.60;99.90;;;;;;5034208;28;20014;-62
2024/01/28 06:21:40;;;;;;;;;;;4.60;99.90;;;;;;5033816;28;19929;-60
2024/01/28 06:24:07;;;;;;;;;;;4.60;99.90;;;;;;5029273;28;19925;-59
2024/01/28 06:26:36;;;;;;;;;;;4.50;99.90;;;;;;5029021;28;20592;-59
2024/01/28 06:29:03;;;;;;;;;;;4.50;99.90;;;;;;5030872;28;19972;-64
2024/01/28 06:31:30;;;;;;;;;;;4.50;99.90;;;;;;5035561;28;19940;-64
2024/01/28 06:33:57;;;;;;;;;;;4.60;99.90;;;;;;5031777;28;19952;-59
2024/01/28 06:36:24;;;;;;;;;;;4.60;99.90;;;;;;5033354;28;19975;-61
2024/01/28 06:38:51;;;;;;;;;;;4.60;99.90;;;;;;5034661;28;19928;-62
2024/01/28 06:41:18;;;;;;;;;;;4.60;99.90;;;;;;5033532;28;19972;-59
2024/01/28 06:43:45;;;;;;;;;;;4.60;99.90;;;;;;5032753;28;20047;-64
2024/01/28 06:46:12;;;;;;;;;;;4.60;99.90;;;;;;5029334;28;19925;-59
2024/01/28 06:48:39;;;;;;;;;;;4.60;99.90;;;;;;5029824;28;19925;-62
2024/01/28 06:51:06;;;;;;;;;;;4.60;99.90;;;;;;5030978;28;19932;-62
2024/01/28 06:53:33;;;;;;;;;;;4.60;99.90;;;;;;5033407;28;19933;-61
2024/01/28 06:56:00;;;;;;;;;;;4.60;99.90;;;;;;5029171;28;20023;-66
2024/01/28 06:58:26;;;;;;;;;;;4.60;99.90;;;;;;5035158;28;19960;-60
2024/01/28 07:00:53;;;;;;;;;;;4.60;99.90;;;;;;5034815;28;19960;-64
2024/01/28 07:03:20;;;;;;;;;;;4.60;99.90;;;;;;5027746;28;19971;-59
2024/01/28 07:05:47;;;;;;;;;;;4.60;99.90;;;;;;5028205;28;19933;-60
2024/01/28 07:08:14;;;;;;;;;;;4.50;99.90;;;;;;5031695;28;20335;-60
2024/01/28 07:10:41;;;;;;;;;;;4.50;99.90;;;;;;5027383;28;20370;-59
2024/01/28 07:13:08;;;;;;;;;;;4.50;99.90;;;;;;5034217;28;19929;-61
2024/01/28 07:15:36;;;;;;;;;;;4.50;99.90;;;;;;5027949;28;19975;-61
2024/01/28 07:18:03;;;;;;;;;;;4.50;99.90;;;;;;5030191;28;19931;-65
2024/01/28 07:20:31;;;;;;;;;;;4.50;99.90;;;;;;5026245;28;20366;-60
2024/01/28 07:22:58;;;;;;;;;;;4.50;99.90;;;;;;5032983;28;19978;-60
2024/01/28 07:25:25;;;;;;;;;;;4.50;99.90;;;;;;5029541;28;19925;-62
2024/01/28 07:27:52;;;;;;;;;;;4.50;99.90;;;;;;5029977;28;19929;-61
2024/01/28 07:30:19;;;;;;;;;;;4.50;99.90;;;;;;5033939;28;19932;-61
2024/01/28 07:32:46;;;;;;;;;;;4.50;99.90;;;;;;5032135;28;19925;-59
2024/01/28 07:35:15;;;;;;;;;;;4.50;99.90;;;;;;5034469;28;19988;-63
2024/01/28 07:37:42;;;;;;;;;;;4.50;99.90;;;;;;5035670;28;20735;-60
2024/01/28 07:40:10;;;;;;;;;;;4.60;99.90;;;;;;5037052;28;19960;-65
2024/01/28 07:42:37;;;;;;;;;;;4.60;99.90;;;;;;5037745;28;20028;-59
2024/01/28 07:45:04;;;;;;;;;;;4.60;99.90;;;;;;5037020;28;19929;-61
2024/01/28 07:47:31;;;;;;;;;;;4.60;99.90;;;;;;5036743;28;19957;-60
2024/01/28 07:49:59;;;;;;;;;;;4.60;99.90;;;;;;5038482;28;19964;-59
2024/01/28 07:52:26;;;;;;;;;;;4.60;99.90;;;;;;5032051;28;19933;-64
2024/01/28 07:54:54;;;;;;;;;;;4.70;99.90;;;;;;5032367;28;20397;-62
2024/01/28 07:57:21;;;;;;;;;;;4.60;99.90;;;;;;5033432;28;19987;-63
2024/01/28 07:59:49;;;;;;;;;;;4.60;99.90;;;;;;5032490;28;20580;-59
2024/01/28 08:02:16;;;;;;;;;;;4.60;99.90;;;;;;5029207;28;19924;-64
2024/01/28 08:04:43;;;;;;;;;;;4.70;99.90;;;;;;5034628;28;19929;-65
2024/01/28 08:07:10;;;;;;;;;;;4.60;99.90;;;;;;5033124;28;20531;-60
2024/01/28 08:09:37;;;;;;;;;;;4.70;99.90;;;;;;5031085;28;20597;-59
2024/01/28 08:12:04;;;;;;;;;;;4.60;99.90;;;;;;5037368;28;20611;-64
2024/01/28 08:14:31;;;;;;;;;;;4.70;99.90;;;;;;5033114;28;20016;-60
2024/01/28 08:16:58;;;;;;;;;;;4.70;99.90;;;;;;5032611;28;19940;-64
2024/01/28 08:19:25;;;;;;;;;;;4.70;99.90;;;;;;5035242;28;19933;-63
2024/01/28 08:21:51;;;;;;;;;;;4.70;99.90;;;;;;5032828;28;19925;-74
2024/01/28 08:24:18;;;;;;;;;;;4.70;99.90;;;;;;5035189;28;20002;-60
2024/01/28 08:26:45;;;;;;;;;;;4.70;99.90;;;;;;5037213;28;19925;-66
2024/01/28 08:29:12;;;;;;;;;;;4.70;99.90;;;;;;5036938;28;19932;-61
2024/01/28 08:31:39;;;;;;;;;;;4.60;99.90;;;;;;5032612;28;19935;-60
2024/01/28 08:34:06;;;;;;;;;;;4.60;99.90;;;;;;5031509;28;20051;-59
2024/01/28 08:36:33;;;;;;;;;;;4.70;99.90;;;;;;5061107;28;19933;-59
2024/01/28 08:39:00;;;;;;;;;;;4.70;99.90;;;;;;5034360;28;19929;-59
2024/01/28 08:41:27;;;;;;;;;;;4.70;99.90;;;;;;5032463;28;20040;-60
2024/01/28 08:43:54;;;;;;;;;;;4.70;99.90;;;;;;5034881;28;19936;-63
2024/01/28 08:46:21;;;;;;;;;;;4.70;99.90;;;;;;5035434;28;20040;-60
2024/01/28 08:48:47;;;;;;;;;;;4.70;99.90;;;;;;5035775;28;20334;-61
2024/01/28 08:51:14;;;;;;;;;;;4.80;99.90;;;;;;5028856;28;19933;-64
2024/01/28 08:53:41;;;;;;;;;;;4.80;99.90;;;;;;5038826;28;19928;-60
2024/01/28 08:56:08;;;;;;;;;;;4.80;99.90;;;;;;5030389;28;19968;-62
2024/01/28 08:58:35;;;;;;;;;;;4.80;99.90;;;;;;5029309;28;19929;-60
2024/01/28 09:01:02;;;;;;;;;;;4.80;99.90;;;;;;5029675;28;20439;-59
2024/01/28 09:03:29;;;;;;;;;;;4.80;99.90;;;;;;5040295;28;19936;-59
2024/01/28 09:05:56;;;;;;;;;;;4.80;99.90;;;;;;5033272;28;19975;-60
2024/01/28 09:08:23;;;;;;;;;;;4.80;99.90;;;;;;5035499;28;19933;-61
2024/01/28 09:10:51;;;;;;;;;;;4.70;99.90;;;;;;5034772;28;19981;-60
2024/01/28 09:13:18;;;;;;;;;;;4.70;99.90;;;;;;5031393;28;19929;-60
2024/01/28 09:15:45;;;;;;;;;;;4.70;99.90;;;;;;5030578;28;19929;-61
2024/01/28 09:18:12;;;;;;;;;;;4.70;99.90;;;;;;5036805;28;19936;-65
2024/01/28 09:20:39;;;;;;;;;;;4.70;99.90;;;;;;5033620;28;19933;-61
2024/01/28 09:23:06;;;;;;;;;;;4.70;99.90;;;;;;5036944;28;20267;-60
2024/01/28 09:25:33;;;;;;;;;;;4.70;99.90;;;;;;5031197;28;19932;-61
2024/01/28 09:28:00;;;;;;;;;;;4.70;99.90;;;;;;5029010;28;20375;-60
2024/01/28 09:30:27;;;;;;;;;;;4.70;99.90;;;;;;5030515;28;20021;-59
2024/01/28 09:32:55;;;;;;;;;;;4.70;99.90;;;;;;5034467;28;19929;-62
2024/01/28 09:35:21;;;;;;;;;;;4.70;99.90;;;;;;5029820;28;19940;-62
2024/01/28 09:37:48;;;;;;;;;;;4.80;99.90;;;;;;5031397;28;19925;-61
2024/01/28 09:40:15;;;;;;;;;;;4.80;99.90;;;;;;5035507;28;20567;-61
2024/01/28 09:42:45;;;;;;;;;;;4.80;99.90;;;;;;5031614;28;19929;-62
2024/01/28 09:45:12;;;;;;;;;;;4.80;99.90;;;;;;5029272;28;19943;-59
2024/01/28 09:47:40;;;;;;;;;;;4.90;99.90;;;;;;5036277;28;19978;-64
2024/01/28 09:50:08;;;;;;;;;;;4.90;99.90;;;;;;5029548;28;19929;-60
2024/01/28 09:52:35;;;;;;;;;;;5.00;99.90;;;;;;5038644;28;19935;-61
2024/01/28 09:55:02;;;;;;;;;;;5.00;99.90;;;;;;5033843;28;19925;-60
2024/01/28 09:57:29;;;;;;;;;;;5.00;99.90;;;;;;5030227;28;19936;-59
2024/01/28 09:59:56;;;;;;;;;;;5.00;99.90;;;;;;5035800;28;20038;-61
2024/01/28 10:02:23;;;;;;;;;;;5.00;99.90;;;;;;5032564;28;19999;-62
2024/01/28 10:04:50;;;;;;;;;;;5.00;99.90;;;;;;5030298;28;19925;-66
2024/01/28 10:07:17;;;;;;;;;;;5.10;99.90;;;;;;5030858;28;19931;-63
2024/01/28 10:09:45;;;;;;;;;;;5.10;99.90;;;;;;5032984;28;19929;-59
2024/01/28 10:12:12;;;;;;;;;;;5.10;99.90;;;;;;5026834;28;20362;-65
2024/01/28 10:14:39;;;;;;;;;;;5.20;99.90;;;;;;5029203;28;20033;-59
2024/01/28 10:17:06;;;;;;;;;;;5.20;99.90;;;;;;5029420;28;19951;-63
2024/01/28 10:19:33;;;;;;;;;;;5.20;99.90;;;;;;5045435;28;20361;-60
2024/01/28 10:22:03;;;;;;;;;;;5.30;99.90;;;;;;5029559;28;20299;-59
2024/01/28 10:24:30;;;;;;;;;;;5.30;99.90;;;;;;5031547;28;19970;-62
2024/01/28 10:26:57;;;;;;;;;;;5.30;99.90;;;;;;5030282;28;19936;-61
2024/01/28 10:29:25;;;;;;;;;;;5.40;99.90;;;;;;5030660;28;19933;-59
2024/01/28 10:31:52;;;;;;;;;;;5.40;99.90;;;;;;5027886;28;19932;-65
2024/01/28 10:34:20;;;;;;;;;;;5.40;99.90;;;;;;5035138;28;19982;-61
2024/01/28 10:36:47;;;;;;;;;;;5.50;99.90;;;;;;5033830;28;20485;-65
2024/01/28 10:39:14;;;;;;;;;;;5.50;99.90;;;;;;5031742;28;19991;-67
2024/01/28 10:41:43;;;;;;;;;;;5.60;99.90;;;;;;5034789;28;20344;-60
2024/01/28 10:44:12;;;;;;;;;;;5.70;99.90;;;;;;5028216;28;19987;-60
2024/01/28 10:46:40;;;;;;;;;;;5.80;99.90;;;;;;5029772;28;19932;-62
2024/01/28 10:49:08;;;;;;;;;;;5.80;99.90;;;;;;5028677;28;19979;-60
2024/01/28 10:51:36;;;;;;;;;;;5.90;99.90;;;;;;5030476;28;19972;-64
2024/01/28 10:54:04;;;;;;;;;;;5.90;99.90;;;;;;5026957;28;19956;-65
2024/01/28 10:56:31;;;;;;;;;;;6.00;99.90;;;;;;5032173;28;19925;-63
2024/01/28 10:58:58;;;;;;;;;;;6.00;99.90;;;;;;5021020;28;19929;-60
2024/01/28 11:01:28;;;;;;;;;;;5.90;99.90;;;;;;5029320;28;20450;-68
2024/01/28 11:03:56;;;;;;;;;;;5.90;99.90;;;;;;5027275;28;19937;-65
2024/01/28 11:06:27;;;;;;;;;;;5.90;99.90;;;;;;5033006;28;19929;-59
2024/01/28 11:08:55;;;;;;;;;;;5.80;99.90;;;;;;5030488;28;20015;-59
2024/01/28 11:11:22;;;;;;;;;;;5.80;99.90;;;;;;5032369;28;19933;-60
2024/01/28 11:13:49;;;;;;;;;;;5.70;99.90;;;;;;5036207;28;20325;-59
2024/01/28 11:16:16;;;;;;;;;;;5.70;99.90;;;;;;5027364;28;19933;-63
2024/01/28 11:18:57;;;;;;;;;;;5.70;99.90;;;;;;5025529;28;19951;-62
2024/01/28 11:21:25;;;;;;;;;;;5.60;99.90;;;;;;5029994;28;19935;-62
2024/01/28 11:23:57;;;;;;;;;;;5.60;99.90;;;;;;5030006;28;19933;-59
2024/01/28 11:26:25;;;;;;;;;;;5.60;99.90;;;;;;5028257;28;19925;-60
2024/01/28 11:28:53;;;;;;;;;;;5.60;99.90;;;;;;5026636;28;20364;-61
2024/01/28 11:31:33;;;;;;;;;;;5.60;99.90;;;;;;5028237;28;19925;-61
2024/01/28 11:34:20;;;;;;;;;;;5.60;99.90;;;;;;5036329;28;19935;-60
2024/01/28 11:36:50;;;;;;;;;;;5.60;99.90;;;;;;5030491;28;19936;-62
2024/01/28 11:39:28;;;;;;;;;;;5.60;99.90;;;;;;5032716;28;19924;-66
2024/01/28 11:41:55;;;;;;;;;;;5.50;99.90;;;;;;5033295;28;20033;-59
2024/01/28 11:44:22;;;;;;;;;;;5.50;99.90;;;;;;5030063;28;19947;-59
2024/01/28 11:46:49;;;;;;;;;;;5.50;99.90;;;;;;5032176;28;19925;-60
2024/01/28 11:49:16;;;;;;;;;;;5.50;99.90;;;;;;5031203;28;20011;-66
2024/01/28 11:51:43;;;;;;;;;;;5.50;99.90;;;;;;5029046;28;19926;-60
2024/01/28 11:54:10;;;;;;;;;;;5.50;99.90;;;;;;5032221;28;19947;-60
2024/01/28 11:56:36;;;;;;;;;;;5.50;99.90;;;;;;5034081;28;19936;-61
2024/01/28 11:59:09;;;;;;;;;;;5.50;99.90;;;;;;5031554;28;19929;-64
2024/01/28 12:01:36;;;;;;;;;;;5.60;99.90;;;;;;5030354;28;20649;-61
2024/01/28 12:04:04;;;;;;;;;;;5.60;99.90;;;;;;5031127;28;20020;-59
2024/01/28 12:06:31;;;;;;;;;;;5.60;99.90;;;;;;5034583;28;19925;-65
2024/01/28 12:09:00;;;;;;;;;;;5.70;99.90;;;;;;5027203;28;19931;-60
2024/01/28 12:11:33;;;;;;;;;;;5.70;99.90;;;;;;5031105;28;19929;-62
2024/01/28 12:14:01;;;;;;;;;;;5.70;99.90;;;;;;5036327;28;20015;-66
2024/01/28 12:16:34;;;;;;;;;;;5.80;99.90;;;;;;5032093;28;19928;-67
2024/01/28 12:19:01;;;;;;;;;;;5.70;99.90;;;;;;5036906;28;20272;-60
2024/01/28 12:21:28;;;;;;;;;;;5.80;99.90;;;;;;5033552;28;19928;-60
2024/01/28 12:23:59;;;;;;;;;;;5.80;99.90;;;;;;5032186;28;19932;-60
2024/01/28 12:26:26;;;;;;;;;;;5.70;99.90;;;;;;5033249;28;20375;-62
2024/01/28 12:28:53;;;;;;;;;;;5.80;99.90;;;;;;5037737;28;19929;-59
2024/01/28 12:31:20;;;;;;;;;;;5.70;99.90;;;;;;5037911;28;19925;-61
2024/01/28 12:33:48;;;;;;;;;;;5.70;99.90;;;;;;5033731;28;20503;-61
2024/01/28 12:36:15;;;;;;;;;;;5.70;99.90;;;;;;5042400;28;19925;-64
2024/01/28 12:38:42;;;;;;;;;;;5.70;99.90;;;;;;5032095;28;19933;-62
2024/01/28 12:41:10;;;;;;;;;;;5.60;99.90;;;;;;5035182;28;19925;-60
2024/01/28 12:43:37;;;;;;;;;;;5.60;99.90;;;;;;5036392;28;20364;-61
2024/01/28 12:46:04;;;;;;;;;;;5.60;99.90;;;;;;5030371;28;20023;-60
2024/01/28 12:48:31;;;;;;;;;;;5.60;99.90;;;;;;5038821;28;20019;-61
2024/01/28 12:50:58;;;;;;;;;;;5.50;99.90;;;;;;5030913;28;20022;-60
2024/01/28 12:53:25;;;;;;;;;;;5.50;99.90;;;;;;5036212;28;19925;-59
2024/01/28 12:55:52;;;;;;;;;;;5.50;99.90;;;;;;5034018;28;19988;-62
2024/01/28 12:58:19;;;;;;;;;;;5.40;99.90;;;;;;5030141;28;20395;-60
2024/01/28 13:00:45;;;;;;;;;;;5.40;99.90;;;;;;5034637;28;20773;-64
2024/01/28 13:03:12;;;;;;;;;;;5.40;99.90;;;;;;5035542;28;20027;-64
2024/01/28 13:05:39;;;;;;;;;;;5.40;99.90;;;;;;5032074;28;20032;-62
2024/01/28 13:08:06;;;;;;;;;;;5.40;99.90;;;;;;5033832;28;19939;-62
2024/01/28 13:10:33;;;;;;;;;;;5.30;99.90;;;;;;5031787;28;19925;-65
2024/01/28 13:13:00;;;;;;;;;;;5.30;99.90;;;;;;5039431;28;20602;-59
2024/01/28 13:15:27;;;;;;;;;;;5.30;99.90;;;;;;5034030;28;19929;-61
2024/01/28 13:17:54;;;;;;;;;;;5.20;99.90;;;;;;5034352;28;19937;-64
2024/01/28 13:20:20;;;;;;;;;;;5.10;99.90;;;;;;5029385;28;20007;-61
2024/01/28 13:22:48;;;;;;;;;;;5.10;99.90;;;;;;5034565;28;19925;-61
2024/01/28 13:25:16;;;;;;;;;;;5.00;99.90;;;;;;5033501;28;19933;-65
2024/01/28 13:27:43;;;;;;;;;;;5.00;99.90;;;;;;5035057;28;19971;-62
2024/01/28 13:30:11;;;;;;;;;;;5.00;99.90;;;;;;5029617;28;20289;-60
2024/01/28 13:32:39;;;;;;;;;;;5.00;99.90;;;;;;5033872;28;19929;-60
2024/01/28 13:35:06;;;;;;;;;;;5.00;99.90;;;;;;5036683;28;20054;-61
2024/01/28 13:37:34;;;;;;;;;;;4.90;99.90;;;;;;5034302;28;20626;-60
2024/01/28 13:40:01;;;;;;;;;;;4.90;99.90;;;;;;5029930;28;20024;-60
2024/01/28 13:42:27;;;;;;;;;;;4.90;99.90;;;;;;5032556;28;20023;-60
2024/01/28 13:44:54;;;;;;;;;;;4.80;99.90;;;;;;5030333;28;20056;-67
2024/01/28 13:47:22;;;;;;;;;;;4.80;99.90;;;;;;5027875;28;20302;-60
2024/01/28 13:49:49;;;;;;;;;;;4.80;99.90;;;;;;5035370;28;19935;-63
2024/01/28 13:52:16;;;;;;;;;;;4.80;99.90;;;;;;5033003;28;20393;-62
2024/01/28 13:54:43;;;;;;;;;;;4.70;99.90;;;;;;5024678;28;19978;-60
2024/01/28 13:57:10;;;;;;;;;;;4.70;99.90;;;;;;5037143;28;20031;-61
2024/01/28 13:59:37;;;;;;;;;;;4.70;99.90;;;;;;5035057;28;20043;-62
2024/01/28 14:02:05;;;;;;;;;;;4.70;99.90;;;;;;5030329;28;20015;-62
2024/01/28 14:04:32;;;;;;;;;;;4.60;99.90;;;;;;5027155;28;19964;-60
2024/01/28 14:06:59;;;;;;;;;;;4.60;99.90;;;;;;5029793;28;20008;-61
2024/01/28 14:09:26;;;;;;;;;;;4.50;99.90;;;;;;5031679;28;19929;-62
2024/01/28 14:11:53;;;;;;;;;;;4.50;99.90;;;;;;5032358;28;19925;-66
2024/01/28 14:14:20;;;;;;;;;;;4.40;99.90;;;;;;5030181;28;19948;-63
2024/01/28 14:16:47;;;;;;;;;;;4.40;99.90;;;;;;5051063;28;20036;-64
2024/01/28 14:19:13;;;;;;;;;;;4.40;99.90;;;;;;5035548;28;19978;-63
2024/01/28 14:21:40;;;;;;;;;;;4.30;99.90;;;;;;5035152;28;19940;-63
2024/01/28 14:24:09;;;;;;;;;;;4.30;99.90;;;;;;5035742;28;21299;-60
2024/01/28 14:26:36;;;;;;;;;;;4.30;99.90;;;;;;5028573;28;19929;-60
2024/01/28 14:29:02;;;;;;;;;;;4.20;99.90;;;;;;5031726;28;19982;-68
2024/01/28 14:31:29;;;;;;;;;;;4.20;99.90;;;;;;5034245;28;20259;-60